sensor_id;sensor_type;location;lat;lon;timestamp;pressure;altitude;pressure_sealevel;temperature;humidity
56038;BME280;41907;47.848;9.000;2022-12-18T00:01:01;96713.78;;;-6.40;100.00
56038;BME280;41907;47.848;9.000;2022-12-18T00:03:33;96713.78;;;-6.40;100.00
56038;BME280;41907;47.848;9.000;2022-12-18T00:05:59;96714.41;;;-6.38;100.00
56038;BME280;41907;47.848;9.000;2022-12-18T00:08:25;96715.84;;;-6.35;100.00
56038;BME280;41907;47.848;9.000;2022-12-18T00:10:50;96708.41;;;-6.39;100.00
56038;BME280;41907;47.848;9.000;2022-12-18T00:13:16;96710.47;;;-6.34;100.00
56038;BME280;41907;47.848;9.000;2022-12-18T00:15:41;96713.97;;;-6.27;100.00
56038;BME280;41907;47.848;9.000;2022-12-18T00:18:06;96706.34;;;-6.28;100.00
56038;BME280;41907;47.848;9.000;2022-12-18T00:20:38;96712.09;;;-6.33;100.00
56038;BME280;41907;47.848;9.000;2022-12-18T00:23:05;96707.88;;;-6.34;100.00
56038;BME280;41907;47.848;9.000;2022-12-18T00:25:35;96719.50;;;-6.30;100.00
56038;BME280;41907;47.848;9.000;2022-12-18T00:28:02;96729.38;;;-6.25;100.00
56038;BME280;41907;47.848;9.000;2022-12-18T00:30:28;96718.00;;;-6.24;100.00
56038;BME280;41907;47.848;9.000;2022-12-18T00:32:53;96718.19;;;-6.26;100.00
56038;BME280;41907;47.848;9.000;2022-12-18T00:35:19;96715.13;;;-6.29;100.00
56038;BME280;41907;47.848;9.000;2022-12-18T00:37:44;96717.53;;;-6.28;100.00
56038;BME280;41907;47.848;9.000;2022-12-18T00:40:10;96719.63;;;-6.23;100.00
56038;BME280;41907;47.848;9.000;2022-12-18T00:42:36;96719.88;;;-6.18;100.00
56038;BME280;41907;47.848;9.000;2022-12-18T00:45:20;96721.84;;;-6.20;100.00
56038;BME280;41907;47.848;9.000;2022-12-18T00:47:45;96720.50;;;-6.16;100.00
56038;BME280;41907;47.848;9.000;2022-12-18T00:50:11;96730.72;;;-6.15;100.00
56038;BME280;41907;47.848;9.000;2022-12-18T00:52:36;96724.56;;;-6.14;100.00
56038;BME280;41907;47.848;9.000;2022-12-18T00:55:02;96731.44;;;-6.06;100.00
56038;BME280;41907;47.848;9.000;2022-12-18T00:57:27;96735.56;;;-5.97;100.00
56038;BME280;41907;47.848;9.000;2022-12-18T00:59:52;96742.28;;;-5.88;100.00
56038;BME280;41907;47.848;9.000;2022-12-18T01:02:19;96736.22;;;-5.74;100.00
56038;BME280;41907;47.848;9.000;2022-12-18T01:04:45;96744.75;;;-5.80;100.00
56038;BME280;41907;47.848;9.000;2022-12-18T01:07:10;96757.97;;;-5.75;100.00
56038;BME280;41907;47.848;9.000;2022-12-18T01:09:35;96745.47;;;-5.86;100.00
56038;BME280;41907;47.848;9.000;2022-12-18T01:12:01;96744.88;;;-5.88;100.00
56038;BME280;41907;47.848;9.000;2022-12-18T01:14:26;96747.66;;;-5.89;100.00
56038;BME280;41907;47.848;9.000;2022-12-18T01:16:51;96740.13;;;-5.99;100.00
56038;BME280;41907;47.848;9.000;2022-12-18T01:19:18;96741.75;;;-5.98;100.00
56038;BME280;41907;47.848;9.000;2022-12-18T01:21:44;96746.13;;;-5.98;100.00
56038;BME280;41907;47.848;9.000;2022-12-18T01:24:11;96743.53;;;-5.98;100.00
56038;BME280;41907;47.848;9.000;2022-12-18T01:26:37;96749.06;;;-6.02;100.00
56038;BME280;41907;47.848;9.000;2022-12-18T01:29:02;96750.50;;;-5.99;100.00
56038;BME280;41907;47.848;9.000;2022-12-18T01:31:31;96745.66;;;-6.02;100.00
56038;BME280;41907;47.848;9.000;2022-12-18T01:33:57;96762.97;;;-5.94;100.00
56038;BME280;41907;47.848;9.000;2022-12-18T01:36:25;96764.03;;;-5.89;100.00
56038;BME280;41907;47.848;9.000;2022-12-18T01:38:51;96776.22;;;-5.89;100.00
56038;BME280;41907;47.848;9.000;2022-12-18T01:41:23;96769.84;;;-5.87;100.00
56038;BME280;41907;47.848;9.000;2022-12-18T01:46:18;96776.16;;;-5.75;100.00
56038;BME280;41907;47.848;9.000;2022-12-18T01:48:47;96776.63;;;-5.71;100.00
56038;BME280;41907;47.848;9.000;2022-12-18T01:51:13;96775.09;;;-5.66;100.00
56038;BME280;41907;47.848;9.000;2022-12-18T01:53:41;96771.25;;;-5.70;100.00
56038;BME280;41907;47.848;9.000;2022-12-18T01:56:08;96777.78;;;-5.74;100.00
56038;BME280;41907;47.848;9.000;2022-12-18T02:01:20;96775.75;;;-5.78;100.00
56038;BME280;41907;47.848;9.000;2022-12-18T02:03:46;96780.44;;;-5.88;100.00
56038;BME280;41907;47.848;9.000;2022-12-18T02:06:24;96775.47;;;-5.83;100.00
56038;BME280;41907;47.848;9.000;2022-12-18T02:09:14;96768.28;;;-5.81;100.00
56038;BME280;41907;47.848;9.000;2022-12-18T02:12:12;96772.69;;;-5.82;100.00
56038;BME280;41907;47.848;9.000;2022-12-18T02:14:49;96773.25;;;-5.86;100.00
56038;BME280;41907;47.848;9.000;2022-12-18T02:17:21;96759.75;;;-5.96;100.00
56038;BME280;41907;47.848;9.000;2022-12-18T02:20:13;96767.53;;;-5.96;100.00
56038;BME280;41907;47.848;9.000;2022-12-18T02:27:54;96777.84;;;-5.88;100.00
56038;BME280;41907;47.848;9.000;2022-12-18T02:30:22;96770.84;;;-5.88;100.00
56038;BME280;41907;47.848;9.000;2022-12-18T02:32:52;96768.78;;;-5.92;100.00
56038;BME280;41907;47.848;9.000;2022-12-18T02:35:27;96763.75;;;-5.94;100.00
56038;BME280;41907;47.848;9.000;2022-12-18T02:37:55;96760.63;;;-5.89;100.00
56038;BME280;41907;47.848;9.000;2022-12-18T02:40:24;96768.28;;;-5.81;100.00
56038;BME280;41907;47.848;9.000;2022-12-18T02:42:50;96768.28;;;-5.81;100.00
56038;BME280;41907;47.848;9.000;2022-12-18T02:45:16;96766.16;;;-5.78;100.00
56038;BME280;41907;47.848;9.000;2022-12-18T02:47:44;96772.97;;;-5.77;100.00
56038;BME280;41907;47.848;9.000;2022-12-18T02:50:43;96778.16;;;-5.77;100.00
56038;BME280;41907;47.848;9.000;2022-12-18T03:03:47;96781.19;;;-5.73;100.00
56038;BME280;41907;47.848;9.000;2022-12-18T03:06:36;96787.38;;;-5.74;100.00
56038;BME280;41907;47.848;9.000;2022-12-18T03:09:08;96787.66;;;-5.69;100.00
56038;BME280;41907;47.848;9.000;2022-12-18T03:11:38;96789.53;;;-5.63;100.00
56038;BME280;41907;47.848;9.000;2022-12-18T03:14:25;96791.59;;;-5.58;100.00
56038;BME280;41907;47.848;9.000;2022-12-18T03:16:54;96796.50;;;-5.49;100.00
56038;BME280;41907;47.848;9.000;2022-12-18T03:19:26;96794.00;;;-5.42;100.00
56038;BME280;41907;47.848;9.000;2022-12-18T03:21:54;96785.00;;;-5.25;100.00
56038;BME280;41907;47.848;9.000;2022-12-18T03:24:22;96782.84;;;-5.21;100.00
56038;BME280;41907;47.848;9.000;2022-12-18T03:26:53;96780.41;;;-5.23;100.00
56038;BME280;41907;47.848;9.000;2022-12-18T03:29:24;96783.47;;;-5.19;100.00
56038;BME280;41907;47.848;9.000;2022-12-18T03:31:56;96778.34;;;-5.28;100.00
56038;BME280;41907;47.848;9.000;2022-12-18T03:34:30;96781.06;;;-5.36;100.00
56038;BME280;41907;47.848;9.000;2022-12-18T03:36:57;96785.44;;;-5.36;100.00
56038;BME280;41907;47.848;9.000;2022-12-18T03:39:23;96785.34;;;-5.28;100.00
56038;BME280;41907;47.848;9.000;2022-12-18T03:47:17;96795.47;;;-5.18;100.00
56038;BME280;41907;47.848;9.000;2022-12-18T03:49:49;96796.50;;;-4.98;100.00
56038;BME280;41907;47.848;9.000;2022-12-18T03:52:38;96806.19;;;-5.07;100.00
56038;BME280;41907;47.848;9.000;2022-12-18T03:55:07;96795.94;;;-4.94;100.00
56038;BME280;41907;47.848;9.000;2022-12-18T03:57:33;96794.47;;;-4.81;100.00
56038;BME280;41907;47.848;9.000;2022-12-18T04:00:04;96790.97;;;-4.89;100.00
56038;BME280;41907;47.848;9.000;2022-12-18T04:02:30;96800.84;;;-4.84;100.00
56038;BME280;41907;47.848;9.000;2022-12-18T04:04:59;96796.78;;;-4.72;100.00
56038;BME280;41907;47.848;9.000;2022-12-18T04:07:26;96799.75;;;-4.75;100.00
56038;BME280;41907;47.848;9.000;2022-12-18T04:09:55;96798.25;;;-4.63;100.00
56038;BME280;41907;47.848;9.000;2022-12-18T04:12:25;96797.81;;;-4.66;100.00
56038;BME280;41907;47.848;9.000;2022-12-18T04:14:51;96805.50;;;-4.58;100.00
56038;BME280;41907;47.848;9.000;2022-12-18T04:17:17;96804.50;;;-4.57;100.00
56038;BME280;41907;47.848;9.000;2022-12-18T04:19:42;96797.31;;;-4.55;100.00
56038;BME280;41907;47.848;9.000;2022-12-18T04:22:09;96807.25;;;-4.65;100.00
56038;BME280;41907;47.848;9.000;2022-12-18T04:24:36;96812.31;;;-4.57;100.00
56038;BME280;41907;47.848;9.000;2022-12-18T04:27:02;96815.72;;;-4.35;100.00
56038;BME280;41907;47.848;9.000;2022-12-18T04:29:27;96808.34;;;-4.32;100.00
56038;BME280;41907;47.848;9.000;2022-12-18T04:31:53;96812.66;;;-4.18;100.00
56038;BME280;41907;47.848;9.000;2022-12-18T04:34:19;96808.13;;;-4.09;100.00
56038;BME280;41907;47.848;9.000;2022-12-18T04:36:45;96815.00;;;-4.01;100.00
56038;BME280;41907;47.848;9.000;2022-12-18T04:39:10;96819.03;;;-3.99;100.00
56038;BME280;41907;47.848;9.000;2022-12-18T04:41:36;96817.44;;;-3.93;100.00
56038;BME280;41907;47.848;9.000;2022-12-18T04:44:01;96820.50;;;-3.90;100.00
56038;BME280;41907;47.848;9.000;2022-12-18T04:46:26;96824.13;;;-3.84;100.00
56038;BME280;41907;47.848;9.000;2022-12-18T04:48:52;96821.78;;;-3.79;100.00
56038;BME280;41907;47.848;9.000;2022-12-18T04:51:17;96815.75;;;-3.80;100.00
56038;BME280;41907;47.848;9.000;2022-12-18T04:53:42;96822.00;;;-3.74;100.00
56038;BME280;41907;47.848;9.000;2022-12-18T04:56:10;96818.19;;;-3.71;100.00
56038;BME280;41907;47.848;9.000;2022-12-18T04:58:36;96829.66;;;-3.66;100.00
56038;BME280;41907;47.848;9.000;2022-12-18T05:01:02;96822.63;;;-3.65;100.00
56038;BME280;41907;47.848;9.000;2022-12-18T05:03:28;96819.84;;;-3.64;100.00
56038;BME280;41907;47.848;9.000;2022-12-18T05:05:56;96827.03;;;-3.66;100.00
56038;BME280;41907;47.848;9.000;2022-12-18T05:08:22;96821.03;;;-3.66;100.00
56038;BME280;41907;47.848;9.000;2022-12-18T05:10:47;96822.78;;;-3.73;100.00
56038;BME280;41907;47.848;9.000;2022-12-18T05:13:12;96820.56;;;-3.77;100.00
56038;BME280;41907;47.848;9.000;2022-12-18T05:15:38;96820.09;;;-3.87;100.00
56038;BME280;41907;47.848;9.000;2022-12-18T05:18:03;96827.72;;;-3.85;100.00
56038;BME280;41907;47.848;9.000;2022-12-18T05:20:29;96834.53;;;-3.84;100.00
56038;BME280;41907;47.848;9.000;2022-12-18T05:22:55;96833.34;;;-3.88;100.00
56038;BME280;41907;47.848;9.000;2022-12-18T05:25:21;96834.53;;;-3.84;100.00
56038;BME280;41907;47.848;9.000;2022-12-18T05:27:50;96835.97;;;-3.82;100.00
56038;BME280;41907;47.848;9.000;2022-12-18T05:30:16;96840.59;;;-3.77;100.00
56038;BME280;41907;47.848;9.000;2022-12-18T05:32:42;96845.81;;;-3.77;100.00
56038;BME280;41907;47.848;9.000;2022-12-18T05:35:09;96848.84;;;-3.73;100.00
56038;BME280;41907;47.848;9.000;2022-12-18T05:37:36;96853.53;;;-3.69;100.00
56038;BME280;41907;47.848;9.000;2022-12-18T05:40:03;96850.13;;;-3.63;100.00
56038;BME280;41907;47.848;9.000;2022-12-18T05:42:30;96857.78;;;-3.61;100.00
56038;BME280;41907;47.848;9.000;2022-12-18T05:44:55;96852.13;;;-3.65;100.00
56038;BME280;41907;47.848;9.000;2022-12-18T05:47:21;96853.38;;;-3.61;100.00
56038;BME280;41907;47.848;9.000;2022-12-18T05:49:46;96856.13;;;-3.69;100.00
56038;BME280;41907;47.848;9.000;2022-12-18T05:52:11;96856.72;;;-3.67;100.00
56038;BME280;41907;47.848;9.000;2022-12-18T05:54:37;96857.84;;;-3.76;100.00
56038;BME280;41907;47.848;9.000;2022-12-18T05:57:02;96850.91;;;-3.69;100.00
56038;BME280;41907;47.848;9.000;2022-12-18T05:59:27;96852.16;;;-3.86;100.00
56038;BME280;41907;47.848;9.000;2022-12-18T06:01:53;96853.53;;;-3.97;100.00
56038;BME280;41907;47.848;9.000;2022-12-18T06:04:18;96849.34;;;-3.91;100.00
56038;BME280;41907;47.848;9.000;2022-12-18T06:06:44;96846.22;;;-3.80;100.00
56038;BME280;41907;47.848;9.000;2022-12-18T06:09:09;96848.25;;;-3.76;100.00
56038;BME280;41907;47.848;9.000;2022-12-18T06:11:36;96847.03;;;-3.80;100.00
56038;BME280;41907;47.848;9.000;2022-12-18T06:14:03;96839.03;;;-3.78;100.00
56038;BME280;41907;47.848;9.000;2022-12-18T06:16:29;96847.41;;;-3.83;100.00
56038;BME280;41907;47.848;9.000;2022-12-18T06:18:59;96849.22;;;-3.77;100.00
56038;BME280;41907;47.848;9.000;2022-12-18T06:21:24;96846.97;;;-3.86;100.00
56038;BME280;41907;47.848;9.000;2022-12-18T06:23:49;96853.41;;;-3.82;100.00
56038;BME280;41907;47.848;9.000;2022-12-18T06:26:15;96861.88;;;-3.73;100.00
56038;BME280;41907;47.848;9.000;2022-12-18T06:28:40;96860.25;;;-3.81;100.00
56038;BME280;41907;47.848;9.000;2022-12-18T06:31:06;96866.47;;;-3.76;100.00
56038;BME280;41907;47.848;9.000;2022-12-18T06:33:32;96873.75;;;-3.71;100.00
56038;BME280;41907;47.848;9.000;2022-12-18T06:36:24;96878.81;;;-3.91;100.00
56038;BME280;41907;47.848;9.000;2022-12-18T06:38:50;96884.53;;;-4.02;100.00
56038;BME280;41907;47.848;9.000;2022-12-18T06:41:18;96898.28;;;-3.87;100.00
56038;BME280;41907;47.848;9.000;2022-12-18T06:43:44;96887.47;;;-3.84;100.00
56038;BME280;41907;47.848;9.000;2022-12-18T06:46:10;96893.53;;;-3.77;100.00
56038;BME280;41907;47.848;9.000;2022-12-18T06:48:36;96876.50;;;-3.79;100.00
56038;BME280;41907;47.848;9.000;2022-12-18T06:51:01;96889.28;;;-4.05;100.00
56038;BME280;41907;47.848;9.000;2022-12-18T06:53:27;96901.59;;;-3.99;100.00
56038;BME280;41907;47.848;9.000;2022-12-18T06:56:05;96893.28;;;-4.09;100.00
56038;BME280;41907;47.848;9.000;2022-12-18T06:58:31;96895.09;;;-4.10;100.00
56038;BME280;41907;47.848;9.000;2022-12-18T07:01:04;96894.94;;;-4.02;100.00
56038;BME280;41907;47.848;9.000;2022-12-18T07:03:30;96905.25;;;-3.94;100.00
56038;BME280;41907;47.848;9.000;2022-12-18T07:05:55;96903.44;;;-3.93;100.00
56038;BME280;41907;47.848;9.000;2022-12-18T07:08:20;96910.03;;;-3.97;100.00
56038;BME280;41907;47.848;9.000;2022-12-18T07:10:46;96914.97;;;-3.81;100.00
56038;BME280;41907;47.848;9.000;2022-12-18T07:13:11;96925.88;;;-3.71;100.00
56038;BME280;41907;47.848;9.000;2022-12-18T07:15:37;96917.81;;;-3.76;100.00
56038;BME280;41907;47.848;9.000;2022-12-18T07:18:02;96927.63;;;-3.78;100.00
56038;BME280;41907;47.848;9.000;2022-12-18T07:20:28;96923.97;;;-3.84;100.00
56038;BME280;41907;47.848;9.000;2022-12-18T07:22:53;96920.94;;;-3.87;100.00
56038;BME280;41907;47.848;9.000;2022-12-18T07:25:19;96924.34;;;-3.87;100.00
56038;BME280;41907;47.848;9.000;2022-12-18T07:27:44;96923.47;;;-3.94;100.00
56038;BME280;41907;47.848;9.000;2022-12-18T07:30:10;96929.25;;;-3.98;100.00
56038;BME280;41907;47.848;9.000;2022-12-18T07:32:35;96933.59;;;-4.05;100.00
56038;BME280;41907;47.848;9.000;2022-12-18T07:35:01;96941.53;;;-4.14;100.00
56038;BME280;41907;47.848;9.000;2022-12-18T07:37:26;96942.72;;;-4.16;100.00
56038;BME280;41907;47.848;9.000;2022-12-18T07:39:51;96935.41;;;-4.06;100.00
56038;BME280;41907;47.848;9.000;2022-12-18T07:42:17;96939.91;;;-3.93;100.00
56038;BME280;41907;47.848;9.000;2022-12-18T07:44:59;96930.00;;;-3.83;100.00
56038;BME280;41907;47.848;9.000;2022-12-18T07:47:25;96930.16;;;-3.85;100.00
56038;BME280;41907;47.848;9.000;2022-12-18T07:49:50;96935.56;;;-3.86;100.00
56038;BME280;41907;47.848;9.000;2022-12-18T07:52:16;96933.66;;;-3.78;100.00
56038;BME280;41907;47.848;9.000;2022-12-18T07:54:41;96938.88;;;-3.78;100.00
56038;BME280;41907;47.848;9.000;2022-12-18T07:57:07;96941.72;;;-3.94;100.00
56038;BME280;41907;47.848;9.000;2022-12-18T07:59:32;96943.81;;;-3.83;100.00
56038;BME280;41907;47.848;9.000;2022-12-18T08:01:58;96949.41;;;-3.86;100.00
56038;BME280;41907;47.848;9.000;2022-12-18T08:04:24;96957.03;;;-3.84;100.00
56038;BME280;41907;47.848;9.000;2022-12-18T08:06:49;96958.44;;;-3.88;100.00
56038;BME280;41907;47.848;9.000;2022-12-18T08:09:15;96958.69;;;-3.77;100.00
56038;BME280;41907;47.848;9.000;2022-12-18T08:11:40;96956.97;;;-3.69;100.00
56038;BME280;41907;47.848;9.000;2022-12-18T08:14:06;96956.44;;;-3.58;100.00
56038;BME280;41907;47.848;9.000;2022-12-18T08:16:31;96955.47;;;-3.57;100.00
56038;BME280;41907;47.848;9.000;2022-12-18T08:18:57;96957.16;;;-3.50;100.00
56038;BME280;41907;47.848;9.000;2022-12-18T08:21:27;96953.19;;;-3.39;100.00
56038;BME280;41907;47.848;9.000;2022-12-18T08:23:55;96953.00;;;-3.38;100.00
56038;BME280;41907;47.848;9.000;2022-12-18T08:26:21;96947.41;;;-3.34;100.00
56038;BME280;41907;47.848;9.000;2022-12-18T08:28:47;96948.84;;;-3.32;100.00
56038;BME280;41907;47.848;9.000;2022-12-18T08:31:13;96949.06;;;-3.27;100.00
56038;BME280;41907;47.848;9.000;2022-12-18T08:33:38;96953.94;;;-3.17;100.00
56038;BME280;41907;47.848;9.000;2022-12-18T08:36:05;96959.13;;;-3.24;100.00
56038;BME280;41907;47.848;9.000;2022-12-18T08:38:34;96952.91;;;-3.51;100.00
56038;BME280;41907;47.848;9.000;2022-12-18T08:41:01;96962.88;;;-3.61;100.00
56038;BME280;41907;47.848;9.000;2022-12-18T08:43:27;96964.66;;;-3.61;100.00
56038;BME280;41907;47.848;9.000;2022-12-18T08:46:11;96964.16;;;-3.50;100.00
56038;BME280;41907;47.848;9.000;2022-12-18T08:48:36;96967.97;;;-3.46;100.00
56038;BME280;41907;47.848;9.000;2022-12-18T08:51:02;96960.19;;;-3.40;100.00
56038;BME280;41907;47.848;9.000;2022-12-18T08:53:27;96958.06;;;-3.57;100.00
56038;BME280;41907;47.848;9.000;2022-12-18T08:55:57;96957.50;;;-3.53;100.00
56038;BME280;41907;47.848;9.000;2022-12-18T08:58:22;96955.13;;;-3.48;100.00
56038;BME280;41907;47.848;9.000;2022-12-18T09:00:47;96954.97;;;-3.67;100.00
56038;BME280;41907;47.848;9.000;2022-12-18T09:03:14;96960.13;;;-3.74;100.00
56038;BME280;41907;47.848;9.000;2022-12-18T09:05:41;96948.69;;;-3.52;100.00
56038;BME280;41907;47.848;9.000;2022-12-18T09:08:07;96949.69;;;-3.53;100.00
56038;BME280;41907;47.848;9.000;2022-12-18T09:10:32;96945.31;;;-3.46;100.00
56038;BME280;41907;47.848;9.000;2022-12-18T09:12:58;96940.16;;;-3.39;100.00
56038;BME280;41907;47.848;9.000;2022-12-18T09:15:23;96940.28;;;-3.47;100.00
56038;BME280;41907;47.848;9.000;2022-12-18T09:17:49;96938.09;;;-3.50;100.00
56038;BME280;41907;47.848;9.000;2022-12-18T09:20:18;96939.41;;;-3.61;100.00
56038;BME280;41907;47.848;9.000;2022-12-18T09:22:43;96932.72;;;-3.42;100.00
56038;BME280;41907;47.848;9.000;2022-12-18T09:25:09;96932.94;;;-3.37;100.00
56038;BME280;41907;47.848;9.000;2022-12-18T09:27:35;96940.28;;;-3.19;100.00
56038;BME280;41907;47.848;9.000;2022-12-18T09:30:00;96944.00;;;-3.01;100.00
56038;BME280;41907;47.848;9.000;2022-12-18T09:32:26;96942.28;;;-2.87;100.00
56038;BME280;41907;47.848;9.000;2022-12-18T09:34:52;96936.09;;;-2.73;100.00
56038;BME280;41907;47.848;9.000;2022-12-18T09:37:17;96945.63;;;-2.58;100.00
56038;BME280;41907;47.848;9.000;2022-12-18T09:39:43;96940.78;;;-2.62;100.00
56038;BME280;41907;47.848;9.000;2022-12-18T09:42:17;96945.63;;;-2.52;100.00
56038;BME280;41907;47.848;9.000;2022-12-18T09:44:51;96937.81;;;-2.45;100.00
56038;BME280;41907;47.848;9.000;2022-12-18T09:47:34;96941.28;;;-2.38;100.00
56038;BME280;41907;47.848;9.000;2022-12-18T09:50:04;96943.09;;;-2.26;100.00
56038;BME280;41907;47.848;9.000;2022-12-18T09:52:42;96949.56;;;-2.28;100.00
56038;BME280;41907;47.848;9.000;2022-12-18T09:55:21;96943.91;;;-2.25;100.00
56038;BME280;41907;47.848;9.000;2022-12-18T09:57:53;96942.72;;;-2.16;100.00
56038;BME280;41907;47.848;9.000;2022-12-18T10:00:22;96944.56;;;-2.10;100.00
56038;BME280;41907;47.848;9.000;2022-12-18T10:02:50;96950.22;;;-2.00;100.00
56038;BME280;41907;47.848;9.000;2022-12-18T10:05:22;96944.16;;;-2.07;100.00
56038;BME280;41907;47.848;9.000;2022-12-18T10:08:07;96946.16;;;-2.15;100.00
56038;BME280;41907;47.848;9.000;2022-12-18T10:13:33;96947.06;;;-2.49;100.00
56038;BME280;41907;47.848;9.000;2022-12-18T10:21:48;96949.81;;;-2.03;100.00
56038;BME280;41907;47.848;9.000;2022-12-18T10:27:23;96935.16;;;-1.78;100.00
56038;BME280;41907;47.848;9.000;2022-12-18T10:29:50;96944.59;;;-1.77;100.00
56038;BME280;41907;47.848;9.000;2022-12-18T10:32:22;96939.34;;;-1.97;100.00
56038;BME280;41907;47.848;9.000;2022-12-18T10:34:49;96937.16;;;-2.00;100.00
56038;BME280;41907;47.848;9.000;2022-12-18T10:37:17;96946.13;;;-2.22;100.00
56038;BME280;41907;47.848;9.000;2022-12-18T10:39:45;96945.69;;;-2.39;100.00
56038;BME280;41907;47.848;9.000;2022-12-18T10:42:17;96951.53;;;-2.37;100.00
56038;BME280;41907;47.848;9.000;2022-12-18T10:44:43;96948.13;;;-2.31;100.00
56038;BME280;41907;47.848;9.000;2022-12-18T10:47:13;96942.66;;;-2.49;100.00
56038;BME280;41907;47.848;9.000;2022-12-18T10:49:47;96945.88;;;-2.47;100.00
56038;BME280;41907;47.848;9.000;2022-12-18T10:52:20;96950.03;;;-2.59;100.00
56038;BME280;41907;47.848;9.000;2022-12-18T10:54:49;96952.47;;;-2.57;100.00
56038;BME280;41907;47.848;9.000;2022-12-18T10:57:36;96953.16;;;-2.83;100.00
56038;BME280;41907;47.848;9.000;2022-12-18T11:02:50;96959.47;;;-2.99;100.00
56038;BME280;41907;47.848;9.000;2022-12-18T11:05:26;96949.31;;;-2.81;100.00
56038;BME280;41907;47.848;9.000;2022-12-18T11:07:52;96944.78;;;-3.07;100.00
56038;BME280;41907;47.848;9.000;2022-12-18T11:10:21;96938.97;;;-3.37;100.00
56038;BME280;41907;47.848;9.000;2022-12-18T11:12:47;96933.22;;;-3.25;100.00
56038;BME280;41907;47.848;9.000;2022-12-18T11:15:23;96931.47;;;-3.18;100.00
56038;BME280;41907;47.848;9.000;2022-12-18T11:17:51;96934.03;;;-2.90;100.00
56038;BME280;41907;47.848;9.000;2022-12-18T11:20:32;96928.06;;;-2.78;100.00
56038;BME280;41907;47.848;9.000;2022-12-18T11:23:10;96932.63;;;-2.93;100.00
56038;BME280;41907;47.848;9.000;2022-12-18T11:25:37;96929.06;;;-2.79;100.00
56038;BME280;41907;47.848;9.000;2022-12-18T11:30:48;96926.47;;;-2.72;100.00
56038;BME280;41907;47.848;9.000;2022-12-18T11:33:19;96927.09;;;-2.70;100.00
56038;BME280;41907;47.848;9.000;2022-12-18T11:35:50;96917.13;;;-2.47;100.00
56038;BME280;41907;47.848;9.000;2022-12-18T11:40:49;96915.22;;;-2.05;100.00
56038;BME280;41907;47.848;9.000;2022-12-18T11:43:27;96917.63;;;-2.04;100.00
56038;BME280;41907;47.848;9.000;2022-12-18T11:46:10;96910.63;;;-1.83;100.00
56038;BME280;41907;47.848;9.000;2022-12-18T11:48:45;96901.97;;;-1.64;100.00
56038;BME280;41907;47.848;9.000;2022-12-18T11:51:20;96900.94;;;-1.50;100.00
56038;BME280;41907;47.848;9.000;2022-12-18T11:53:51;96898.13;;;-1.55;100.00
56038;BME280;41907;47.848;9.000;2022-12-18T12:01:51;96886.28;;;-1.84;100.00
56038;BME280;41907;47.848;9.000;2022-12-18T12:04:31;96885.84;;;-1.88;100.00
56038;BME280;41907;47.848;9.000;2022-12-18T12:17:53;96896.63;;;-2.50;100.00
56038;BME280;41907;47.848;9.000;2022-12-18T12:20:20;96902.31;;;-2.27;100.00
56038;BME280;41907;47.848;9.000;2022-12-18T12:23:08;96887.69;;;-1.95;100.00
56038;BME280;41907;47.848;9.000;2022-12-18T12:26:01;96891.69;;;-1.85;100.00
56038;BME280;41907;47.848;9.000;2022-12-18T12:33:48;96866.91;;;-1.37;100.00
56038;BME280;41907;47.848;9.000;2022-12-18T12:38:54;96871.72;;;-1.27;100.00
56038;BME280;41907;47.848;9.000;2022-12-18T12:41:30;96866.88;;;-1.30;100.00
56038;BME280;41907;47.848;9.000;2022-12-18T12:44:21;96874.53;;;-1.16;100.00
56038;BME280;41907;47.848;9.000;2022-12-18T12:46:50;96858.63;;;-1.14;100.00
56038;BME280;41907;47.848;9.000;2022-12-18T12:49:20;96874.25;;;-1.01;100.00
56038;BME280;41907;47.848;9.000;2022-12-18T12:51:52;96864.66;;;-1.14;100.00
56038;BME280;41907;47.848;9.000;2022-12-18T12:54:22;96868.28;;;-1.21;100.00
56038;BME280;41907;47.848;9.000;2022-12-18T13:02:31;96876.28;;;-1.03;100.00
56038;BME280;41907;47.848;9.000;2022-12-18T13:07:54;96864.66;;;-1.14;100.00
56038;BME280;41907;47.848;9.000;2022-12-18T13:10:39;96865.66;;;-1.15;100.00
56038;BME280;41907;47.848;9.000;2022-12-18T13:13:12;96861.84;;;-1.19;100.00
56038;BME280;41907;47.848;9.000;2022-12-18T13:15:41;96865.09;;;-1.23;100.00
56038;BME280;41907;47.848;9.000;2022-12-18T13:20:45;96866.25;;;-1.19;100.00
56038;BME280;41907;47.848;9.000;2022-12-18T13:23:38;96877.75;;;-1.20;100.00
56038;BME280;41907;47.848;9.000;2022-12-18T13:31:10;96860.44;;;-1.21;100.00
56038;BME280;41907;47.848;9.000;2022-12-18T13:33:43;96866.72;;;-1.35;100.00
56038;BME280;41907;47.848;9.000;2022-12-18T13:38:36;96870.72;;;-1.26;100.00
56038;BME280;41907;47.848;9.000;2022-12-18T13:43:47;96859.63;;;-1.15;100.00
56038;BME280;41907;47.848;9.000;2022-12-18T13:51:40;96855.66;;;-1.44;100.00
56038;BME280;41907;47.848;9.000;2022-12-18T13:54:36;96851.84;;;-1.48;100.00
56038;BME280;41907;47.848;9.000;2022-12-18T13:57:04;96859.91;;;-1.56;100.00
56038;BME280;41907;47.848;9.000;2022-12-18T13:59:33;96863.16;;;-1.80;100.00
56038;BME280;41907;47.848;9.000;2022-12-18T14:02:07;96868.78;;;-2.10;100.00
56038;BME280;41907;47.848;9.000;2022-12-18T14:04:35;96863.13;;;-2.13;100.00
56038;BME280;41907;47.848;9.000;2022-12-18T14:07:22;96858.94;;;-2.01;100.00
56038;BME280;41907;47.848;9.000;2022-12-18T14:09:59;96865.94;;;-1.89;100.00
56038;BME280;41907;47.848;9.000;2022-12-18T14:12:33;96859.91;;;-1.76;100.00
56038;BME280;41907;47.848;9.000;2022-12-18T14:17:56;96861.53;;;-1.81;100.00
56038;BME280;41907;47.848;9.000;2022-12-18T14:20:24;96856.50;;;-1.76;100.00
56038;BME280;41907;47.848;9.000;2022-12-18T14:22:51;96857.91;;;-1.87;100.00
56038;BME280;41907;47.848;9.000;2022-12-18T14:25:20;96866.38;;;-1.92;100.00
56038;BME280;41907;47.848;9.000;2022-12-18T14:30:39;96864.53;;;-1.78;100.00
56038;BME280;41907;47.848;9.000;2022-12-18T14:35:40;96870.16;;;-1.88;100.00
56038;BME280;41907;47.848;9.000;2022-12-18T14:40:42;96870.78;;;-1.79;100.00
56038;BME280;41907;47.848;9.000;2022-12-18T14:43:13;96867.34;;;-2.19;100.00
56038;BME280;41907;47.848;9.000;2022-12-18T14:45:45;96874.59;;;-2.21;100.00
56038;BME280;41907;47.848;9.000;2022-12-18T14:50:37;96873.41;;;-1.99;100.00